Time;durP1;ratioP1;P1;durP2;ratioP2;P2;SDS_P1;SDS_P2;PMS_P1;PMS_P2;Temp;Humidity;BMP_temperature;BMP_pressure;BME280_temperature;BME280_humidity;BME280_pressure;Samples;Min_cycle;Max_cycle;Signal;HPM_P1;HPM_P2
2021/12/13 00:01:17;;;;;;;4.38;3.97;;;;;;;1.79;77.43;101608.47;5071412;28;20089;-50
2021/12/13 00:03:52;;;;;;;4.38;3.97;;;;;;;1.81;77.47;101625.03;5075885;28;20024;-49
2021/12/13 00:06:23;;;;;;;4.80;4.30;;;;;;;1.82;77.42;101620.69;5095206;28;20043;-50
2021/12/13 00:09:00;;;;;;;4.10;3.70;;;;;;;1.83;77.49;101618.16;5076524;28;20024;-51
2021/12/13 00:11:31;;;;;;;5.38;4.50;;;;;;;1.82;77.50;101611.19;5093854;28;20476;-48
2021/12/13 00:14:08;;;;;;;4.23;3.83;;;;;;;1.83;77.45;101606.91;5076194;28;20023;-51
2021/12/13 00:16:41;;;;;;;4.68;3.92;;;;;;;1.84;77.49;101606.06;5092407;28;20384;-50
2021/12/13 00:19:11;;;;;;;4.30;3.90;;;;;;;1.84;77.49;101614.75;5095002;28;20024;-50
2021/12/13 00:21:43;;;;;;;4.40;4.00;;;;;;;1.84;77.32;101611.25;5076558;28;20063;-50
2021/12/13 00:24:14;;;;;;;4.90;4.35;;;;;;;1.84;77.46;101599.16;5091953;28;20051;-50
2021/12/13 00:26:43;;;;;;;4.20;3.80;;;;;;;1.86;77.48;101607.91;5093472;28;20015;-50
2021/12/13 00:29:33;;;;;;;4.70;4.05;;;;;;;1.85;77.48;101605.22;5076095;28;20289;-50
2021/12/13 00:32:27;;;;;;;4.28;3.88;;;;;;;1.85;77.38;101606.13;5078012;28;20032;-49
2021/12/13 00:34:56;;;;;;;4.43;4.03;;;;;;;1.86;77.47;101602.69;5087315;28;20024;-49
2021/12/13 00:37:39;;;;;;;4.53;4.07;;;;;;;1.87;77.30;101603.59;5092124;28;20486;-50
2021/12/13 00:40:07;;;;;;;4.18;3.78;;;;;;;1.86;77.45;101599.19;5091978;28;20430;-51
2021/12/13 00:42:34;;;;;;;4.72;4.28;;;;;;;1.87;77.40;101601.84;5092290;28;20034;-50
2021/12/13 00:45:05;;;;;;;4.53;3.85;;;;;;;1.88;77.36;101611.47;5095142;28;20023;-49
2021/12/13 00:47:32;;;;;;;4.17;3.77;;;;;;;1.88;77.40;101606.25;5091722;28;20020;-50
2021/12/13 00:50:06;;;;;;;4.45;4.05;;;;;;;1.90;77.34;101606.31;5092522;28;20103;-50
2021/12/13 00:52:33;;;;;;;4.80;4.20;;;;;;;1.90;77.11;101614.13;5073290;28;20454;-49
2021/12/13 00:54:59;;;;;;;4.00;3.55;;;;;;;1.92;77.32;101620.28;5074099;28;20031;-50
2021/12/13 00:57:31;;;;;;;4.43;4.03;;;;;;;1.91;77.20;101626.31;5056580;28;20056;-50
2021/12/13 01:00:04;;;;;;;4.68;4.28;;;;;;;1.92;77.06;101623.78;5090846;28;20031;-49
2021/12/13 01:02:51;;;;;;;4.40;3.88;;;;;;;1.92;77.20;101626.38;5090406;28;20032;-50
2021/12/13 01:05:25;;;;;;;4.20;3.75;;;;;;;1.92;77.31;101623.78;5092079;28;20020;-49
2021/12/13 01:08:08;;;;;;;4.75;4.28;;;;;;;1.92;77.29;101623.78;5090933;28;20027;-50
2021/12/13 01:10:52;;;;;;;4.47;4.07;;;;;;;1.93;77.39;101640.25;5090456;28;20069;-50
2021/12/13 01:13:28;;;;;;;5.38;4.88;;;;;;;1.93;77.31;101635.06;5085650;28;20779;-48
2021/12/13 01:16:51;;;;;;;4.78;4.05;;;;;;;1.94;77.41;101635.94;5086200;28;20513;-50
2021/12/13 01:19:27;;;;;;;4.15;3.75;;;;;;;1.93;77.16;101645.47;5089318;28;20415;-50
2021/12/13 01:22:02;;;;;;;4.25;3.85;;;;;;;1.94;77.22;101638.56;5088535;28;20035;-49
2021/12/13 01:25:03;;;;;;;4.65;4.10;;;;;;;1.94;77.30;101635.94;5089046;28;20093;-49
2021/12/13 01:27:35;;;;;;;4.68;3.63;;;;;;;1.94;77.28;101643.75;5087899;28;20028;-49
2021/12/13 01:30:01;;;;;;;4.68;4.20;;;;;;;1.95;77.39;101651.63;5088174;28;20035;-50
2021/12/13 01:32:36;;;;;;;4.28;3.88;;;;;;;1.96;77.33;101650.81;5089621;28;20058;-49
2021/12/13 01:35:02;;;;;;;4.50;3.75;;;;;;;1.96;77.54;101649.94;5070916;28;20073;-49
2021/12/13 01:37:30;;;;;;;5.05;4.55;;;;;;;1.97;77.56;101654.31;5090397;28;20551;-50
2021/12/13 01:39:56;;;;;;;4.20;3.80;;;;;;;1.97;77.77;101651.69;5090573;28;20028;-49
2021/12/13 01:42:27;;;;;;;5.22;4.28;;;;;;;1.98;77.51;101658.69;5091057;28;20050;-51
2021/12/13 01:44:57;;;;;;;4.68;4.25;;;;;;;1.98;77.43;101653.47;5087537;28;20016;-48
2021/12/13 01:47:26;;;;;;;4.50;3.83;;;;;;;1.99;77.48;101653.53;5056784;28;20085;-50
2021/12/13 01:50:14;;;;;;;4.32;3.75;;;;;;;2.00;77.41;101651.84;5089807;28;20107;-48
2021/12/13 01:52:40;;;;;;;4.43;4.03;;;;;;;2.00;77.37;101657.03;5089033;28;20040;-50
2021/12/13 01:55:21;;;;;;;4.32;3.85;;;;;;;2.00;77.24;101655.31;5071272;28;20046;-51
2021/12/13 01:57:50;;;;;;;;;;;;;;;2.02;77.62;101663.19;5090671;28;20034;-49
2021/12/13 02:00:33;;;;;;;4.15;3.83;;;;;;;2.01;77.29;101661.41;5089414;28;19927;-50
2021/12/13 02:02:59;;;;;;;4.60;4.05;;;;;;;2.00;77.41;101657.03;5074470;28;20059;-50
2021/12/13 02:05:33;;;;;;;4.75;4.25;;;;;;;2.01;77.52;101653.59;5074313;28;20028;-50
2021/12/13 02:08:00;;;;;;;4.22;3.70;;;;;;;2.01;77.58;101654.50;5093622;28;20031;-50
2021/12/13 02:10:37;;;;;;;4.20;3.60;;;;;;;2.02;77.46;101650.16;5093555;28;20055;-50
2021/12/13 02:13:14;;;;;;;5.28;4.30;;;;;;;2.02;77.79;101652.78;5091308;28;20106;-49
2021/12/13 02:18:30;;;;;;;5.22;4.25;;;;;;;2.04;77.60;101651.13;5089528;28;20119;-51
2021/12/13 02:21:05;;;;;;;4.25;3.85;;;;;;;2.04;77.80;101653.75;5092103;28;20028;-50
2021/12/13 02:23:33;;;;;;;4.78;4.28;;;;;;;2.04;77.54;101658.94;5075925;28;20092;-50
2021/12/13 02:25:59;;;;;;;3.78;3.47;;;;;;;2.05;77.69;101658.09;5095855;28;20509;-50
2021/12/13 02:28:29;;;;;;;4.80;3.90;;;;;;;2.05;77.46;101655.50;5096446;28;20484;-49
2021/12/13 02:31:11;;;;;;;4.33;3.93;;;;;;;2.05;77.41;101661.63;5094350;28;20046;-50
2021/12/13 02:33:44;;;;;;;4.65;4.18;;;;;;;2.07;77.52;101659.06;5092706;28;20028;-49
2021/12/13 02:36:14;;;;;;;3.95;3.47;;;;;;;2.08;77.67;101646.94;5091842;28;20024;-49
2021/12/13 02:38:42;;;;;;;5.18;4.38;;;;;;;2.07;77.57;101653.88;5075755;28;20040;-50
2021/12/13 02:41:09;;;;;;;4.85;4.13;;;;;;;2.08;77.63;101644.34;5092133;28;20043;-50
2021/12/13 02:43:39;;;;;;;4.68;4.18;;;;;;;2.09;77.79;101648.69;5092730;28;20027;-49
2021/12/13 02:46:06;;;;;;;4.95;4.18;;;;;;;2.09;77.67;101647.00;5092721;28;20114;-50
2021/12/13 02:48:39;;;;;;;5.72;4.38;;;;;;;2.09;77.62;101649.59;5093734;28;20040;-50
2021/12/13 02:51:21;;;;;;;4.85;4.35;;;;;;;2.10;77.35;101651.38;5092152;28;20031;-49
2021/12/13 02:53:50;;;;;;;4.22;3.83;;;;;;;2.09;77.64;101652.22;5091644;28;20027;-50
2021/12/13 02:56:18;;;;;;;4.47;4.07;;;;;;;2.11;77.70;101654.88;5093270;28;20046;-50
2021/12/13 02:58:45;;;;;;;4.68;4.07;;;;;;;2.11;77.62;101658.38;5094550;28;20032;-49
2021/12/13 03:01:46;;;;;;;4.70;3.95;;;;;;;2.12;77.26;101662.75;5092183;28;20020;-48
2021/12/13 03:04:57;;;;;;;4.45;3.90;;;;;;;2.11;77.68;101658.38;5091695;28;20039;-50
2021/12/13 03:07:26;;;;;;;;;;;;;;;2.12;77.42;101667.97;5074637;28;20024;-51
2021/12/13 03:09:54;;;;;;;4.90;4.10;;;;;;;2.13;77.26;101659.31;5088164;28;20369;-50
2021/12/13 03:12:22;;;;;;;5.30;3.83;;;;;;;2.13;77.79;101663.66;5094338;28;20046;-50
2021/12/13 03:15:00;;;;;;;4.90;4.40;;;;;;;2.13;77.65;101674.94;5093585;28;20118;-50
2021/12/13 03:17:35;;;;;;;3.92;3.63;;;;;;;2.13;77.69;101664.53;5093778;28;20039;-50
2021/12/13 03:20:20;;;;;;;5.53;4.70;;;;;;;2.14;77.68;101666.28;5091623;28;20032;-51
2021/12/13 03:23:03;;;;;;;4.47;4.05;;;;;;;2.13;77.75;101664.53;5092243;28;20020;-47
2021/12/13 03:26:09;;;;;;;4.75;4.25;;;;;;;2.16;77.56;101671.56;5093095;28;20088;-50
2021/12/13 03:28:50;;;;;;;4.80;4.20;;;;;;;2.16;77.49;101672.47;5091803;28;20020;-49
2021/12/13 03:34:40;;;;;;;4.70;4.30;;;;;;;2.17;77.41;101679.44;5088725;28;20396;-49
2021/12/13 03:37:10;;;;;;;4.90;4.40;;;;;;;2.18;77.36;101680.34;5092317;28;20027;-50
2021/12/13 03:39:40;;;;;;;4.90;4.38;;;;;;;2.17;77.75;101682.03;5091017;28;20030;-50
2021/12/13 03:42:14;;;;;;;5.35;4.07;;;;;;;2.17;77.74;101682.03;5074500;28;20024;-49
2021/12/13 03:44:46;;;;;;;4.57;3.88;;;;;;;2.19;77.53;101684.72;5093273;28;20149;-50
2021/12/13 03:47:25;;;;;;;4.30;3.90;;;;;;;2.20;77.63;101683.00;5086441;28;20485;-50
2021/12/13 03:49:55;;;;;;;4.53;3.97;;;;;;;2.20;77.86;101690.81;5090898;28;20027;-50
2021/12/13 03:52:26;;;;;;;4.95;4.45;;;;;;;2.21;77.75;101688.28;5090827;28;20024;-48
2021/12/13 03:54:54;;;;;;;4.23;3.77;;;;;;;2.22;77.62;101689.16;5073164;28;20132;-47
2021/12/13 03:57:22;;;;;;;4.35;3.95;;;;;;;2.23;77.43;101688.34;5084979;28;20289;-48
2021/12/13 03:59:49;;;;;;;4.13;3.72;;;;;;;2.23;77.48;101694.41;5085526;28;20031;-48
2021/12/13 04:02:20;;;;;;;4.38;3.83;;;;;;;2.23;77.53;101688.34;5087757;28;20036;-49
2021/12/13 04:04:52;;;;;;;4.63;3.97;;;;;;;2.23;77.84;101690.94;5069694;28;20028;-48
2021/12/13 04:07:20;;;;;;;4.55;3.90;;;;;;;2.23;77.78;101690.94;5070330;28;20032;-48
2021/12/13 04:09:49;;;;;;;4.32;3.90;;;;;;;2.23;77.74;101696.16;5088997;28;20028;-48
2021/12/13 04:12:16;;;;;;;5.00;4.25;;;;;;;2.24;77.62;101703.13;5089435;28;20110;-48
2021/12/13 04:14:54;;;;;;;4.78;4.00;;;;;;;2.24;77.76;101695.31;5089326;28;20031;-48
2021/12/13 04:17:46;;;;;;;5.45;4.20;;;;;;;2.23;77.54;101699.63;5088275;28;20036;-48
2021/12/13 04:20:21;;;;;;;4.38;3.72;;;;;;;2.25;77.85;101699.69;5089504;28;20024;-48
2021/12/13 04:22:54;;;;;;;4.03;3.60;;;;;;;2.25;77.91;101699.69;5053284;28;20032;-48
2021/12/13 04:25:27;;;;;;;5.25;4.15;;;;;;;2.26;78.05;101702.38;5089935;28;20030;-48
2021/12/13 04:27:57;;;;;;;3.60;3.30;;;;;;;2.27;77.75;101696.31;5085432;28;20399;-48
2021/12/13 04:30:27;;;;;;;4.32;3.70;;;;;;;2.25;78.15;101704.91;5086899;28;20402;-48
2021/12/13 04:32:56;;;;;;;5.07;3.95;;;;;;;2.25;78.39;101697.09;5088527;28;20050;-47
2021/12/13 04:35:23;;;;;;;4.22;3.83;;;;;;;2.26;78.41;101704.06;5088091;28;20468;-48
2021/12/13 04:37:52;;;;;;;3.92;3.53;;;;;;;2.27;78.12;101703.28;5088901;28;20574;-48
2021/12/13 04:40:31;;;;;;;3.65;3.30;;;;;;;2.29;77.79;101707.72;5090067;28;20023;-48
2021/12/13 04:43:05;;;;;;;4.40;4.00;;;;;;;2.29;78.06;101718.13;5072460;28;20104;-49
2021/12/13 04:45:33;;;;;;;3.83;3.25;;;;;;;2.29;78.10;101712.91;5089939;28;20056;-49
2021/12/13 04:48:13;;;;;;;4.35;3.92;;;;;;;2.30;78.28;101713.78;5087479;28;20020;-48
2021/12/13 04:50:50;;;;;;;4.57;3.88;;;;;;;2.30;77.75;101719.00;5088385;28;20028;-48
2021/12/13 04:53:22;;;;;;;4.13;3.63;;;;;;;2.30;77.96;101719.00;5087605;28;20031;-48
2021/12/13 04:55:48;;;;;;;4.40;4.00;;;;;;;2.31;78.12;101720.78;5087757;28;20043;-49
2021/12/13 04:58:15;;;;;;;4.18;3.78;;;;;;;2.30;78.14;101719.91;5087234;28;20566;-48
2021/12/13 05:00:44;;;;;;;4.88;4.38;;;;;;;2.32;78.07;101727.78;5085439;28;20034;-48
2021/12/13 05:03:11;;;;;;;4.80;4.20;;;;;;;2.33;78.33;101731.28;5071127;28;20479;-49
2021/12/13 05:05:37;;;;;;;4.22;3.83;;;;;;;2.33;77.97;101726.94;5089775;28;20106;-48
2021/12/13 05:08:06;;;;;;;5.43;3.88;;;;;;;2.33;77.94;101724.34;5090900;28;20425;-48
2021/12/13 05:10:33;;;;;;;5.00;4.00;;;;;;;2.34;77.95;101735.66;5087102;28;20407;-49
2021/12/13 05:13:03;;;;;;;4.78;4.30;;;;;;;2.34;78.05;101726.13;5088330;28;20028;-48
2021/12/13 05:15:30;;;;;;;4.57;4.17;;;;;;;2.34;78.17;101728.75;5089580;28;20387;-48
2021/12/13 05:17:57;;;;;;;6.25;4.75;;;;;;;2.36;78.28;101739.19;5069500;28;20069;-48
2021/12/13 05:20:30;;;;;;;5.60;4.10;;;;;;;2.35;78.33;101727.91;5054065;28;20062;-48
2021/12/13 05:23:02;;;;;;;3.83;3.47;;;;;;;2.36;78.39;101734.88;5088218;28;20040;-48
2021/12/13 05:25:36;;;;;;;4.78;3.75;;;;;;;2.37;78.40;101746.19;5088081;28;20044;-48
2021/12/13 05:28:23;;;;;;;4.88;4.13;;;;;;;2.37;77.91;101741.00;5072561;28;20056;-48
2021/12/13 05:31:07;;;;;;;4.80;4.28;;;;;;;2.37;78.13;101736.66;5072424;28;20028;-48
2021/12/13 05:33:37;;;;;;;4.38;3.97;;;;;;;2.37;78.40;101741.84;5086703;28;20031;-48
2021/12/13 05:36:09;;;;;;;4.65;4.03;;;;;;;2.37;78.47;101751.41;5051041;28;20045;-48
2021/12/13 05:38:45;;;;;;;4.97;3.90;;;;;;;2.38;78.06;101741.06;5071309;28;20032;-48
2021/12/13 05:41:26;;;;;;;4.88;4.32;;;;;;;2.38;78.28;101742.75;5089847;28;20103;-49
2021/12/13 05:43:56;;;;;;;5.28;4.00;;;;;;;2.38;78.64;101754.06;5086498;28;20028;-48
2021/12/13 05:46:38;;;;;;;5.35;4.00;;;;;;;2.39;78.42;101755.84;5090098;28;20043;-47
2021/12/13 05:49:08;;;;;;;5.22;4.18;;;;;;;2.39;78.70;101752.34;5088300;28;20028;-48
2021/12/13 05:51:44;;;;;;;4.55;3.80;;;;;;;2.40;78.49;101760.22;5083638;28;20645;-49
2021/12/13 05:54:31;;;;;;;4.95;3.58;;;;;;;2.41;78.43;101763.72;5089660;28;20024;-48
2021/12/13 05:57:20;;;;;;;5.25;3.90;;;;;;;2.41;78.43;101766.34;5087613;28;20028;-49
2021/12/13 05:59:51;;;;;;;5.40;3.97;;;;;;;2.41;78.37;101762.00;5089634;28;20123;-48
2021/12/13 06:02:39;;;;;;;4.32;3.70;;;;;;;2.42;78.56;101765.50;5094186;28;20032;-49
2021/12/13 06:05:22;;;;;;;5.53;4.32;;;;;;;2.42;78.34;101765.50;5093289;28;20487;-48
2021/12/13 06:07:55;;;;;;;5.47;4.25;;;;;;;2.45;78.08;101776.06;5075781;28;20109;-48
2021/12/13 06:10:21;;;;;;;5.60;4.40;;;;;;;2.44;78.43;101775.16;5092857;28;20035;-48
2021/12/13 06:13:03;;;;;;;5.40;3.83;;;;;;;2.44;78.58;101775.16;5093540;28;20376;-48
2021/12/13 06:15:37;;;;;;;5.22;4.00;;;;;;;2.43;78.63;101775.97;5075750;28;20032;-48
2021/12/13 06:18:05;;;;;;;4.97;4.20;;;;;;;2.46;78.34;101777.81;5092834;28;20020;-48
2021/12/13 06:20:34;;;;;;;6.43;4.50;;;;;;;2.44;78.61;101775.16;5089097;28;20120;-49
2021/12/13 06:23:10;;;;;;;6.32;4.80;;;;;;;2.45;78.58;101776.06;5091780;28;20497;-49
2021/12/13 06:25:37;;;;;;;7.43;5.18;;;;;;;2.46;78.47;101782.16;5091394;28;20036;-49
2021/12/13 06:28:05;;;;;;;6.63;4.55;;;;;;;2.48;78.16;101789.22;5075053;28;20016;-48
2021/12/13 06:30:38;;;;;;;6.18;4.70;;;;;;;2.46;78.49;101783.03;5090420;28;20403;-49
2021/12/13 06:33:13;;;;;;;6.15;4.82;;;;;;;2.49;78.48;101792.69;5091649;28;20024;-49
2021/12/13 06:36:11;;;;;;;5.18;4.38;;;;;;;2.49;78.33;101798.78;5090129;28;20019;-49
2021/12/13 06:38:41;;;;;;;5.18;4.28;;;;;;;2.50;78.57;101790.16;5077598;28;20048;-49
2021/12/13 06:41:11;;;;;;;4.53;4.07;;;;;;;2.50;78.65;101799.69;5092046;28;20024;-49
2021/12/13 06:43:55;;;;;;;4.75;4.20;;;;;;;2.50;78.74;101799.69;5091030;28;20479;-48
2021/12/13 06:46:20;;;;;;;5.82;4.88;;;;;;;2.48;78.32;101799.63;5090974;28;20028;-49
2021/12/13 06:48:47;;;;;;;6.60;4.57;;;;;;;2.50;78.55;101802.28;5091805;28;20020;-48
2021/12/13 06:51:16;;;;;;;5.10;3.92;;;;;;;2.51;78.53;101806.69;5092137;28;20646;-48
2021/12/13 06:54:02;;;;;;;5.80;4.55;;;;;;;2.51;78.56;101807.56;5088928;28;20524;-49
2021/12/13 06:56:30;;;;;;;6.10;4.30;;;;;;;2.52;78.73;101818.88;5088474;28;20478;-49
2021/12/13 06:58:58;;;;;;;5.88;4.70;;;;;;;2.53;78.59;101810.22;5070556;28;20376;-49
2021/12/13 07:01:26;;;;;;;6.55;4.43;;;;;;;2.53;78.60;101818.94;5088614;28;20108;-49
2021/12/13 07:03:58;;;;;;;5.82;4.40;;;;;;;2.53;78.63;101818.03;5090905;28;20031;-48
2021/12/13 07:06:24;;;;;;;6.15;4.43;;;;;;;2.54;78.88;101814.63;5072530;28;20108;-49
2021/12/13 07:09:14;;;;;;;6.57;4.70;;;;;;;2.55;78.84;101826.81;5092019;28;20706;-49
2021/12/13 07:11:47;;;;;;;5.68;4.55;;;;;;;2.55;78.60;101813.78;5088465;28;20032;-49
2021/12/13 07:14:15;;;;;;;6.18;4.88;;;;;;;2.55;78.87;101819.00;5085372;28;20039;-49
2021/12/13 07:16:46;;;;;;;5.57;4.53;;;;;;;2.55;78.78;101825.09;5092733;28;20109;-49
2021/12/13 07:19:22;;;;;;;5.38;4.25;;;;;;;2.57;78.54;101833.00;5088884;28;20035;-49
2021/12/13 07:21:58;;;;;;;5.03;4.53;;;;;;;2.58;78.60;101824.34;5090474;28;20384;-49
2021/12/13 07:24:31;;;;;;;5.93;4.60;;;;;;;2.58;78.62;101831.25;5091464;28;20031;-49
2021/12/13 07:26:58;;;;;;;5.78;4.63;;;;;;;2.59;78.37;101831.31;5090216;28;20503;-49
2021/12/13 07:29:30;;;;;;;6.05;4.85;;;;;;;2.59;78.65;101831.31;5092353;28;20487;-49
2021/12/13 07:32:14;;;;;;;5.57;4.35;;;;;;;2.60;78.38;101838.31;5092673;28;20016;-48
2021/12/13 07:34:47;;;;;;;5.70;4.18;;;;;;;2.60;78.27;101843.50;5088467;28;20028;-48
2021/12/13 07:37:13;;;;;;;6.22;5.07;;;;;;;2.61;78.18;101834.91;5090166;28;20063;-48
2021/12/13 07:39:38;;;;;;;5.47;4.70;;;;;;;2.61;78.82;101849.63;5089347;28;20047;-48
2021/12/13 07:42:07;;;;;;;5.97;4.75;;;;;;;2.60;78.60;101843.50;5091854;28;20028;-49
2021/12/13 07:44:44;;;;;;;5.22;4.68;;;;;;;2.61;78.69;101842.72;5073954;28;20052;-48
2021/12/13 07:47:24;;;;;;;5.68;4.95;;;;;;;2.63;78.63;101843.66;5089738;28;20014;-48
2021/12/13 07:49:57;;;;;;;6.00;4.82;;;;;;;2.62;78.70;101851.41;5091903;28;20023;-48
2021/12/13 07:52:27;;;;;;;5.53;4.80;;;;;;;2.62;78.51;101847.09;5089617;28;20399;-49
2021/12/13 07:54:53;;;;;;;6.63;4.78;;;;;;;2.63;78.58;101854.06;5090258;28;20106;-48
2021/12/13 07:57:25;;;;;;;6.28;4.85;;;;;;;2.63;78.24;101851.47;5091470;28;20019;-48
2021/12/13 07:59:51;;;;;;;6.35;5.25;;;;;;;2.65;78.49;101851.53;5088659;28;20028;-48
2021/12/13 08:02:25;;;;;;;6.90;5.35;;;;;;;2.65;78.27;101856.75;5088994;28;20020;-49
2021/12/13 08:05:01;;;;;;;7.43;5.95;;;;;;;2.62;78.45;101867.94;5088854;28;20030;-49
2021/12/13 08:07:30;;;;;;;8.65;6.35;;;;;;;2.65;78.65;101874.97;5088934;28;20036;-48
2021/12/13 08:10:06;;;;;;;10.25;7.75;;;;;;;2.66;78.52;101875.06;5064519;28;20094;-48
2021/12/13 08:12:41;;;;;;;9.48;7.15;;;;;;;2.66;78.60;101879.34;5088857;28;20392;-49
2021/12/13 08:15:17;;;;;;;8.48;6.47;;;;;;;2.67;78.42;101882.03;5090780;28;20153;-49
2021/12/13 08:17:53;;;;;;;8.75;6.20;;;;;;;2.67;78.59;101881.16;5091544;28;20020;-49
2021/12/13 08:20:29;;;;;;;7.85;5.97;;;;;;;2.68;78.63;101877.72;5089134;28;20031;-49
2021/12/13 08:23:14;;;;;;;8.15;6.13;;;;;;;2.67;78.61;101882.03;5088541;28;20157;-49
2021/12/13 08:25:40;;;;;;;9.57;6.65;;;;;;;2.67;78.83;101879.44;5088652;28;20062;-48
2021/12/13 08:28:15;;;;;;;7.80;5.93;;;;;;;2.69;78.78;101880.41;5087179;28;20067;-49
2021/12/13 08:30:53;;;;;;;8.55;6.13;;;;;;;2.71;78.58;101876.97;5090655;28;20027;-49
2021/12/13 08:33:35;;;;;;;6.82;5.75;;;;;;;2.71;78.70;101889.97;5088010;28;20020;-48
2021/12/13 08:36:13;;;;;;;7.07;5.85;;;;;;;2.71;78.65;101892.59;5091707;28;20505;-49
2021/12/13 08:38:59;;;;;;;7.55;5.72;;;;;;;2.72;78.69;101889.16;5090185;28;20043;-49
2021/12/13 08:41:31;;;;;;;8.13;5.63;;;;;;;2.71;78.83;101888.28;5083805;28;20542;-49
2021/12/13 08:43:56;;;;;;;7.13;5.43;;;;;;;2.72;78.59;101890.06;5090822;28;20384;-49
2021/12/13 08:46:31;;;;;;;7.73;5.43;;;;;;;2.71;78.66;101898.72;5088438;28;20525;-48
2021/12/13 08:48:58;;;;;;;7.82;5.68;;;;;;;2.71;78.72;101887.38;5085795;28;20282;-49
2021/12/13 08:51:28;;;;;;;8.27;5.70;;;;;;;2.72;78.87;101894.38;5068762;28;20436;-49
2021/12/13 08:54:18;;;;;;;9.23;6.28;;;;;;;2.73;78.74;101893.56;5091471;28;20023;-48
2021/12/13 08:56:49;;;;;;;6.43;5.10;;;;;;;2.74;78.74;101892.72;5090200;28;20031;-48
2021/12/13 08:59:23;;;;;;;8.17;5.87;;;;;;;2.75;78.67;101902.31;5091034;28;20031;-49
2021/12/13 09:02:09;;;;;;;7.95;6.03;;;;;;;2.74;78.68;101893.63;5071463;28;20039;-48
2021/12/13 09:04:39;;;;;;;10.60;6.60;;;;;;;2.74;78.75;101900.53;5090832;28;20046;-48
2021/12/13 09:07:09;;;;;;;8.70;5.80;;;;;;;2.77;78.92;101908.50;5089804;28;20020;-49
2021/12/13 09:09:42;;;;;;;8.07;5.85;;;;;;;2.76;79.23;101906.69;5090841;28;21193;-49
2021/12/13 09:12:11;;;;;;;6.95;5.18;;;;;;;2.78;78.95;101910.28;5088331;28;20064;-49
2021/12/13 09:14:43;;;;;;;9.57;6.25;;;;;;;2.80;78.87;101904.28;5092025;28;20449;-49
2021/12/13 09:17:26;;;;;;;8.60;5.70;;;;;;;2.80;79.19;101903.44;5090926;28;20058;-49
2021/12/13 09:19:57;;;;;;;7.15;5.78;;;;;;;2.79;78.81;101907.72;5089968;28;20032;-48
2021/12/13 09:22:28;;;;;;;7.70;5.40;;;;;;;2.80;78.75;101909.50;5070001;28;20034;-49
2021/12/13 09:24:56;;;;;;;8.15;5.38;;;;;;;2.83;78.47;101908.75;5087009;28;20019;-48
2021/12/13 09:27:25;;;;;;;8.43;5.45;;;;;;;2.83;78.72;101908.75;5091630;28;20552;-49
2021/12/13 09:29:56;;;;;;;6.57;5.63;;;;;;;2.83;78.43;101908.75;5089455;28;20439;-48
2021/12/13 09:32:24;;;;;;;7.05;5.57;;;;;;;2.84;78.61;101907.94;5088746;28;20031;-49
2021/12/13 09:34:53;;;;;;;6.93;5.30;;;;;;;2.84;78.66;101913.16;5069025;28;20032;-49
2021/12/13 09:37:34;;;;;;;9.48;6.10;;;;;;;2.84;78.70;101907.94;5089430;28;20028;-48
2021/12/13 09:40:03;;;;;;;7.65;6.30;;;;;;;2.85;78.47;101907.09;5087640;28;20036;-49
2021/12/13 09:42:29;;;;;;;9.45;6.22;;;;;;;2.86;78.81;101908.00;5088942;28;20032;-48
2021/12/13 09:45:08;;;;;;;7.93;5.50;;;;;;;2.86;78.58;101905.41;5071836;28;20039;-49
2021/12/13 09:47:40;;;;;;;7.55;5.45;;;;;;;2.87;78.39;101910.66;5087272;28;20028;-49
2021/12/13 09:50:16;;;;;;;9.38;6.22;;;;;;;2.85;78.43;101911.41;5087535;28;20059;-49
2021/12/13 09:52:51;;;;;;;8.52;6.03;;;;;;;2.88;79.03;101921.97;5073067;28;20484;-51
2021/12/13 09:55:32;;;;;;;9.48;6.30;;;;;;;2.88;78.90;101917.66;5089203;28;20030;-50
2021/12/13 09:57:59;;;;;;;8.00;6.07;;;;;;;2.88;78.69;101922.88;5088872;28;20426;-51
2021/12/13 10:00:47;;;;;;;9.05;6.00;;;;;;;2.90;78.54;101925.56;5090272;28;20020;-50
2021/12/13 10:03:19;;;;;;;8.63;5.90;;;;;;;2.89;79.06;101919.44;5089964;28;20531;-50
2021/12/13 10:05:48;;;;;;;8.23;5.78;;;;;;;2.90;78.59;101909.91;5071751;28;20608;-51
2021/12/13 10:08:27;;;;;;;9.70;6.30;;;;;;;2.91;78.64;101911.69;5087324;28;20028;-51
2021/12/13 10:11:00;;;;;;;8.25;5.85;;;;;;;2.92;78.95;101927.41;5071038;28;20044;-50
2021/12/13 10:13:36;;;;;;;8.20;5.78;;;;;;;2.92;78.77;101927.41;5071036;28;20401;-51
2021/12/13 10:16:07;;;;;;;8.30;6.50;;;;;;;2.92;79.03;101916.97;5071149;28;20040;-50
2021/12/13 10:18:36;;;;;;;7.00;5.65;;;;;;;2.93;78.68;101921.34;5072469;28;20046;-51
2021/12/13 10:21:07;;;;;;;8.77;6.50;;;;;;;2.93;79.00;101913.53;5090045;28;20035;-51
2021/12/13 10:23:38;;;;;;;7.35;5.32;;;;;;;2.94;78.79;101914.44;5088735;28;20036;-51
2021/12/13 10:26:07;;;;;;;9.93;5.88;;;;;;;2.94;79.17;101904.88;5088605;28;20081;-51
2021/12/13 10:28:35;;;;;;;9.15;5.97;;;;;;;2.93;79.30;101908.31;5090994;28;20027;-50
2021/12/13 10:31:23;;;;;;;10.45;6.05;;;;;;;2.93;79.10;101900.50;5072422;28;20016;-50
2021/12/13 10:33:48;;;;;;;10.88;6.80;;;;;;;2.95;79.83;101908.38;5084084;28;20024;-51
2021/12/13 10:36:15;;;;;;;9.07;5.78;;;;;;;2.94;79.58;101907.47;5087684;28;20035;-49
2021/12/13 10:38:45;;;;;;;11.00;7.32;;;;;;;2.95;79.81;101909.28;5087620;28;20028;-50
2021/12/13 10:41:16;;;;;;;11.15;8.70;;;;;;;2.96;79.59;101899.72;5089423;28;20467;-51
2021/12/13 10:43:46;;;;;;;11.45;7.82;;;;;;;2.97;79.50;101911.06;5068681;28;20131;-51
2021/12/13 10:46:20;;;;;;;12.37;8.60;;;;;;;2.98;79.63;101903.31;5090418;28;20042;-51
2021/12/13 10:48:50;;;;;;;11.23;7.75;;;;;;;2.98;79.59;101915.44;5091340;28;20020;-51
2021/12/13 10:51:40;;;;;;;13.23;8.20;;;;;;;3.00;79.59;101906.00;5056622;28;20024;-50
2021/12/13 10:54:18;;;;;;;11.73;7.97;;;;;;;3.00;79.53;101911.19;5087635;28;20107;-50
2021/12/13 10:56:51;;;;;;;12.35;8.68;;;;;;;3.00;79.49;101900.78;5093054;28;20053;-50
2021/12/13 10:59:19;;;;;;;11.45;8.45;;;;;;;2.97;79.76;101901.53;5093418;28;20128;-51
2021/12/13 11:01:48;;;;;;;12.38;8.93;;;;;;;3.00;79.37;101906.84;5092399;28;20020;-49
2021/12/13 11:04:22;;;;;;;16.58;11.20;;;;;;;3.01;79.33;101910.38;5090499;28;20404;-50
2021/12/13 11:06:48;;;;;;;15.55;12.70;;;;;;;3.01;79.67;101907.75;5093025;28;20024;-51
2021/12/13 11:09:19;;;;;;;22.52;14.45;;;;;;;3.03;79.46;101906.13;5091188;28;20024;-51
2021/12/13 11:11:48;;;;;;;22.08;16.77;;;;;;;3.03;79.60;101903.50;5087247;28;20042;-51
2021/12/13 11:14:17;;;;;;;23.00;17.23;;;;;;;3.02;79.30;101910.44;5089829;28;20023;-51
2021/12/13 11:16:48;;;;;;;19.15;16.00;;;;;;;3.03;79.65;101909.59;5092875;28;20050;-51
2021/12/13 11:19:17;;;;;;;18.40;13.40;;;;;;;3.03;79.64;101909.59;5092868;28;20065;-51
2021/12/13 11:21:45;;;;;;;16.58;11.85;;;;;;;3.03;79.66;101908.72;5092679;28;20099;-51
2021/12/13 11:24:19;;;;;;;14.90;11.63;;;;;;;3.03;79.75;101911.34;5092036;28;20023;-51
2021/12/13 11:26:47;;;;;;;15.38;11.93;;;;;;;3.04;80.07;101910.50;5090745;28;20020;-51
2021/12/13 11:29:15;;;;;;;15.73;11.95;;;;;;;3.04;80.04;101897.47;5091430;28;20047;-51
2021/12/13 11:31:52;;;;;;;15.15;11.38;;;;;;;3.05;79.70;101901.84;5090467;28;20402;-51
2021/12/13 11:35:08;;;;;;;15.35;10.50;;;;;;;3.05;79.91;101902.75;5091308;28;20024;-50
2021/12/13 11:38:05;;;;;;;13.82;11.38;;;;;;;3.05;79.71;101907.06;5030890;28;20037;-51
2021/12/13 11:40:51;;;;;;;17.17;11.32;;;;;;;3.05;80.11;101907.06;5028707;28;20508;-51
2021/12/13 11:43:54;;;;;;;15.02;11.48;;;;;;;3.04;80.20;101900.94;5085710;28;20040;-51
2021/12/13 11:46:55;;;;;;;14.35;11.27;;;;;;;3.06;80.13;101912.34;5090951;28;20360;-51
2021/12/13 11:49:43;;;;;;;12.85;10.38;;;;;;;3.07;80.04;101910.63;5092151;28;20024;-50
2021/12/13 11:52:36;;;;;;;15.13;10.75;;;;;;;3.06;80.16;101911.44;5090438;28;21449;-50
2021/12/13 11:55:25;;;;;;;12.25;9.90;;;;;;;3.06;80.08;101907.13;5090079;28;20092;-48
2021/12/13 11:58:03;;;;;;;13.70;9.40;;;;;;;3.07;80.20;101910.63;5089863;28;20028;-50
2021/12/13 12:00:46;;;;;;;13.05;10.32;;;;;;;3.07;80.13;101906.28;5089619;28;20036;-48
2021/12/13 12:03:49;;;;;;;14.18;10.75;;;;;;;3.09;80.33;101911.56;5087788;28;20581;-48
2021/12/13 12:06:45;;;;;;;16.00;10.57;;;;;;;3.08;80.57;101907.19;5089639;28;20031;-48
2021/12/13 12:09:22;;;;;;;13.95;10.13;;;;;;;3.08;80.17;101915.00;5091035;28;20023;-49
2021/12/13 12:12:06;;;;;;;13.15;9.63;;;;;;;3.10;80.46;101910.72;5087961;28;20027;-48